createdAt,value
2017-09-21T00:01:06.592Z,8.23
2017-09-21T00:03:34.101Z,8.10
2017-09-21T00:06:01.641Z,8.07
2017-09-21T00:08:30.071Z,6.87
2017-09-21T00:10:57.937Z,7.90
2017-09-21T00:13:25.454Z,8.10
2017-09-21T00:15:52.974Z,7.53
2017-09-21T00:18:20.525Z,8.43
2017-09-21T00:20:48.807Z,7.60
2017-09-21T00:23:17.415Z,7.37
2017-09-21T00:25:44.947Z,7.60
2017-09-21T00:28:13.235Z,7.50
2017-09-21T00:30:40.776Z,8.57
2017-09-21T00:33:09.054Z,8.00
2017-09-21T00:35:37.673Z,7.20
2017-09-21T00:38:05.184Z,7.53
2017-09-21T00:40:32.707Z,6.57
2017-09-21T00:43:00.257Z,6.60
2017-09-21T00:45:27.764Z,7.40
2017-09-21T00:47:56.503Z,7.93
2017-09-21T00:50:24.030Z,7.60
2017-09-21T00:52:52.316Z,7.80
2017-09-21T00:55:20.626Z,7.27
2017-09-21T00:57:48.150Z,8.50
2017-09-21T01:00:16.865Z,9.80
2017-09-21T01:02:44.370Z,8.43
2017-09-21T01:05:11.886Z,8.80
2017-09-21T01:07:39.423Z,8.03
2017-09-21T01:10:07.699Z,9.43
2017-09-21T01:12:35.695Z,8.63
2017-09-21T01:15:03.218Z,8.60
2017-09-21T01:17:30.744Z,9.37
2017-09-21T01:19:58.307Z,8.97
2017-09-21T01:22:25.832Z,9.10
2017-09-21T01:24:53.702Z,8.70
2017-09-21T01:27:21.206Z,8.50
2017-09-21T01:29:48.719Z,8.50
2017-09-21T01:32:16.247Z,7.07
2017-09-21T01:34:44.534Z,9.33
2017-09-21T01:37:12.444Z,9.13
2017-09-21T01:39:39.980Z,8.63
2017-09-21T01:42:07.518Z,7.77
2017-09-21T01:44:35.833Z,8.60
2017-09-21T01:47:03.354Z,9.50
2017-09-21T01:49:31.939Z,8.67
2017-09-21T01:52:00.219Z,9.13
2017-09-21T01:54:28.507Z,9.80
2017-09-21T01:56:56.050Z,10.60
2017-09-21T01:59:24.334Z,9.80
2017-09-21T02:01:52.946Z,9.40
2017-09-21T02:04:20.465Z,11.03
2017-09-21T02:06:48.783Z,10.83
2017-09-21T02:09:16.330Z,11.10
2017-09-21T02:11:43.847Z,10.80
2017-09-21T02:14:11.881Z,11.80
2017-09-21T02:16:39.414Z,11.87
2017-09-21T02:19:06.935Z,11.00
2017-09-21T02:21:34.509Z,10.57
2017-09-21T02:24:02.816Z,11.17
2017-09-21T02:26:30.704Z,9.23
2017-09-21T02:28:58.234Z,8.50
2017-09-21T02:31:25.772Z,8.60
2017-09-21T02:33:53.300Z,8.80
2017-09-21T02:36:20.821Z,8.40
2017-09-21T02:38:48.715Z,8.80
2017-09-21T02:41:16.236Z,7.20
2017-09-21T02:43:44.523Z,7.70
2017-09-21T02:46:12.827Z,8.60
2017-09-21T02:48:40.344Z,7.50
2017-09-21T02:51:08.958Z,7.80
2017-09-21T02:53:36.471Z,8.30
2017-09-21T02:56:04.009Z,7.90
2017-09-21T02:58:31.553Z,7.93
2017-09-21T03:00:59.083Z,8.63
2017-09-21T03:03:26.935Z,10.30
2017-09-21T03:05:55.223Z,8.40
2017-09-21T03:08:23.508Z,8.73
2017-09-21T03:10:51.810Z,8.03
2017-09-21T03:13:19.316Z,8.30
2017-09-21T03:15:47.230Z,8.67
2017-09-21T03:18:14.744Z,9.60
2017-09-21T03:20:42.261Z,8.50
2017-09-21T03:23:09.820Z,9.30
2017-09-21T03:25:37.337Z,8.50
2017-09-21T03:28:05.954Z,9.50
2017-09-21T03:30:33.482Z,9.37
2017-09-21T03:33:01.775Z,10.70
2017-09-21T03:35:29.329Z,10.00
2017-09-21T03:37:57.619Z,11.90
2017-09-21T03:40:25.499Z,11.60
2017-09-21T03:42:53.019Z,11.77
2017-09-21T03:45:20.521Z,11.80
2017-09-21T03:47:48.058Z,10.87
2017-09-21T03:50:16.346Z,10.70
2017-09-21T03:52:44.229Z,11.33
2017-09-21T03:55:11.739Z,11.80
2017-09-21T03:57:39.275Z,12.67
2017-09-21T04:00:06.826Z,10.60
2017-09-21T04:02:34.358Z,9.83
2017-09-21T04:05:02.240Z,11.00
2017-09-21T04:07:29.771Z,11.07
2017-09-21T04:09:58.052Z,11.00
2017-09-21T04:12:26.375Z,11.57
2017-09-21T04:14:53.896Z,26.43
2017-09-21T04:17:21.799Z,13.10
2017-09-21T04:19:49.323Z,13.37
2017-09-21T04:22:17.603Z,14.20
2017-09-21T04:24:45.146Z,12.57
2017-09-21T04:27:13.443Z,13.63
2017-09-21T04:29:41.319Z,13.80
2017-09-21T04:32:08.833Z,12.63
2017-09-21T04:34:36.348Z,13.60
2017-09-21T04:37:03.913Z,12.57
2017-09-21T04:39:31.439Z,13.27
2017-09-21T04:42:00.076Z,15.00
2017-09-21T04:44:27.616Z,15.70
2017-09-21T04:46:55.140Z,14.67
2017-09-21T04:49:23.463Z,16.47
2017-09-21T04:51:50.971Z,13.90
2017-09-21T04:54:19.599Z,14.47
2017-09-21T04:56:47.144Z,14.63
2017-09-21T04:59:14.668Z,15.33
2017-09-21T05:01:43.007Z,13.87
2017-09-21T05:04:10.559Z,14.73
2017-09-21T05:06:38.419Z,15.47
2017-09-21T05:09:05.932Z,14.63
2017-09-21T05:11:33.444Z,14.73
2017-09-21T05:14:00.991Z,14.23
2017-09-21T05:16:28.514Z,14.07
2017-09-21T05:18:56.426Z,13.50
2017-09-21T05:21:23.959Z,15.37
2017-09-21T05:23:52.252Z,14.37
2017-09-21T05:26:19.787Z,14.90
2017-09-21T05:28:48.081Z,13.77
2017-09-21T05:31:16.665Z,13.40
2017-09-21T05:33:44.956Z,13.47
2017-09-21T05:36:12.470Z,14.03
2017-09-21T05:38:40.016Z,13.83
2017-09-21T05:41:07.543Z,14.70
2017-09-21T05:43:35.418Z,13.87
2017-09-21T05:46:02.947Z,14.80
2017-09-21T05:48:31.250Z,14.37
2017-09-21T05:50:58.827Z,16.17
2017-09-21T05:53:26.360Z,13.63
2017-09-21T05:55:54.308Z,13.07
2017-09-21T05:58:21.856Z,14.97
2017-09-21T06:00:49.605Z,14.17
2017-09-21T06:03:17.192Z,14.70
2017-09-21T06:05:44.691Z,14.37
2017-09-21T06:08:12.570Z,14.00
2017-09-21T06:10:40.947Z,14.77
2017-09-21T06:13:08.573Z,14.37
2017-09-21T06:15:49.630Z,14.23
2017-09-21T06:18:17.929Z,13.00
2017-09-21T06:20:46.544Z,14.03
2017-09-21T06:23:14.108Z,15.13
2017-09-21T06:25:43.522Z,12.93
2017-09-21T06:28:11.071Z,13.67
2017-09-21T06:30:38.623Z,13.40
2017-09-21T06:33:06.541Z,12.77
2017-09-21T06:35:34.907Z,13.00
2017-09-21T06:38:02.454Z,13.10
2017-09-21T06:40:30.027Z,13.23
2017-09-21T06:42:57.571Z,13.40
2017-09-21T06:45:25.404Z,12.30
2017-09-21T06:47:52.956Z,14.30
2017-09-21T06:50:21.251Z,14.00
2017-09-21T06:52:48.800Z,13.50
2017-09-21T06:55:17.123Z,12.93
2017-09-21T06:57:45.116Z,14.07
2017-09-21T07:00:12.634Z,16.00
2017-09-21T07:02:40.192Z,15.73
2017-09-21T07:05:07.731Z,14.23
2017-09-21T07:07:35.253Z,14.90
2017-09-21T07:10:04.560Z,14.73
2017-09-21T07:12:32.089Z,13.67
2017-09-21T07:14:59.741Z,15.30
2017-09-21T07:17:27.300Z,15.90
2017-09-21T07:19:54.832Z,14.10
2017-09-21T07:22:23.417Z,15.40
2017-09-21T07:24:51.004Z,15.03
2017-09-21T07:27:18.524Z,15.73
2017-09-21T07:29:46.841Z,15.00
2017-09-21T07:32:14.387Z,17.17
2017-09-21T07:34:42.195Z,15.63
2017-09-21T07:37:09.718Z,15.70
2017-09-21T07:39:37.259Z,17.83
2017-09-21T07:42:04.854Z,16.20
2017-09-21T07:44:32.395Z,16.70
2017-09-21T07:47:00.236Z,15.77
2017-09-21T07:49:28.537Z,16.27
2017-09-21T07:51:57.484Z,17.77
2017-09-21T07:54:25.040Z,17.43
2017-09-21T07:56:52.645Z,16.57
2017-09-21T07:59:21.259Z,18.03
2017-09-21T08:01:48.784Z,18.33
2017-09-21T08:04:17.097Z,17.90
2017-09-21T08:06:44.657Z,18.40
2017-09-21T08:09:12.172Z,20.53
2017-09-21T08:11:40.789Z,20.53
2017-09-21T08:14:08.354Z,20.63
2017-09-21T08:16:35.879Z,21.00
2017-09-21T08:19:04.198Z,22.80
2017-09-21T08:21:31.730Z,22.10
2017-09-21T08:23:59.581Z,19.83
2017-09-21T08:26:27.898Z,20.00
2017-09-21T08:28:55.435Z,19.97
2017-09-21T08:31:23.746Z,20.60
2017-09-21T08:33:51.264Z,22.10
2017-09-21T08:36:19.919Z,19.77
2017-09-21T08:38:47.449Z,20.97
2017-09-21T08:41:15.027Z,18.47
2017-09-21T08:43:42.568Z,19.90
2017-09-21T08:46:10.110Z,20.53
2017-09-21T08:48:37.961Z,20.47
2017-09-21T08:51:06.265Z,18.30
2017-09-21T08:53:33.793Z,17.97
2017-09-21T08:56:02.104Z,19.70
2017-09-21T08:58:29.620Z,19.83
2017-09-21T09:00:57.454Z,17.80
2017-09-21T09:03:24.977Z,17.83
2017-09-21T09:05:52.517Z,16.07
2017-09-21T09:08:20.850Z,15.70
2017-09-21T09:10:48.390Z,15.90
2017-09-21T09:13:16.277Z,15.73
2017-09-21T09:15:43.821Z,16.50
2017-09-21T09:18:11.344Z,16.33
2017-09-21T09:20:39.664Z,17.30
2017-09-21T09:23:07.238Z,18.93
2017-09-21T09:25:35.369Z,15.93
2017-09-21T09:28:03.677Z,16.27
2017-09-21T09:30:31.219Z,16.30
2017-09-21T09:32:58.776Z,15.40
2017-09-21T09:35:26.319Z,15.50
2017-09-21T09:37:54.936Z,15.40
2017-09-21T09:40:22.477Z,16.50
2017-09-21T09:42:50.756Z,17.53
2017-09-21T09:45:19.063Z,17.93
2017-09-21T09:47:46.580Z,18.00
2017-09-21T09:50:15.207Z,18.13
2017-09-21T09:52:42.736Z,19.33
2017-09-21T09:55:11.033Z,16.90
2017-09-21T09:57:38.628Z,19.33
2017-09-21T10:00:06.185Z,19.60
2017-09-21T10:02:34.004Z,20.63
2017-09-21T10:05:02.316Z,20.80
2017-09-21T10:07:29.860Z,20.57
2017-09-21T10:09:57.505Z,20.37
2017-09-21T10:12:25.047Z,20.70
2017-09-21T10:14:53.063Z,20.47
2017-09-21T10:17:20.604Z,18.23
2017-09-21T10:19:48.951Z,18.83
2017-09-21T10:22:16.515Z,20.20
2017-09-21T10:24:44.041Z,17.43
2017-09-21T10:27:11.894Z,19.80
2017-09-21T10:29:39.415Z,18.17
2017-09-21T10:32:07.725Z,18.37
2017-09-21T10:34:36.048Z,18.70
2017-09-21T10:37:03.569Z,16.70
2017-09-21T10:39:31.388Z,16.57
2017-09-21T10:41:58.906Z,17.60
2017-09-21T10:44:26.440Z,18.90
2017-09-21T10:46:54.010Z,18.33
2017-09-21T10:49:21.531Z,15.53
2017-09-21T10:51:50.173Z,16.27
2017-09-21T10:54:17.694Z,19.27
2017-09-21T10:56:45.219Z,18.20
2017-09-21T10:59:12.765Z,16.07
2017-09-21T11:01:40.274Z,15.47
2017-09-21T11:04:08.870Z,12.70
2017-09-21T11:06:36.401Z,12.83
2017-09-21T11:09:04.723Z,14.13
2017-09-21T11:11:32.291Z,15.30
2017-09-21T11:13:59.839Z,15.00
2017-09-21T11:16:27.718Z,12.03
2017-09-21T11:18:55.517Z,14.30
2017-09-21T11:21:23.056Z,13.90
2017-09-21T11:23:50.593Z,15.27
2017-09-21T11:26:18.128Z,15.53
2017-09-21T11:28:46.800Z,12.43
2017-09-21T11:31:15.114Z,13.43
2017-09-21T11:33:42.641Z,15.07
2017-09-21T11:36:10.960Z,13.87
2017-09-21T11:38:38.508Z,13.80
2017-09-21T11:41:06.494Z,14.43
2017-09-21T11:43:34.015Z,13.90
2017-09-21T11:46:02.303Z,14.70
2017-09-21T11:48:30.620Z,12.90
2017-09-21T11:50:58.138Z,11.97
2017-09-21T11:53:26.732Z,12.83
2017-09-21T11:55:54.264Z,14.77
2017-09-21T11:58:21.786Z,16.00
2017-09-21T12:00:49.335Z,13.90
2017-09-21T12:03:16.854Z,13.40
2017-09-21T12:05:45.457Z,13.80
2017-09-21T12:08:12.985Z,12.77
2017-09-21T12:10:40.529Z,13.20
2017-09-21T12:13:08.096Z,11.50
2017-09-21T12:15:35.722Z,11.37
2017-09-21T12:18:03.669Z,11.40
2017-09-21T12:20:31.216Z,11.60
2017-09-21T12:22:59.509Z,11.57
2017-09-21T12:25:27.076Z,12.43
2017-09-21T12:27:54.636Z,12.37
2017-09-21T12:30:23.282Z,11.73
2017-09-21T12:32:50.840Z,12.50
2017-09-21T12:35:18.368Z,12.50
2017-09-21T12:37:45.934Z,13.17
2017-09-21T12:40:13.483Z,12.33
2017-09-21T12:42:41.564Z,12.40
2017-09-21T12:45:09.120Z,13.13
2017-09-21T12:47:36.677Z,13.00
2017-09-21T12:50:04.241Z,11.97
2017-09-21T12:52:31.805Z,11.17
2017-09-21T12:54:59.698Z,12.37
2017-09-21T12:57:27.208Z,11.73
2017-09-21T12:59:54.734Z,12.13
2017-09-21T13:02:22.328Z,14.50
2017-09-21T13:04:49.994Z,12.90
2017-09-21T13:07:17.889Z,13.87
2017-09-21T13:09:45.471Z,13.40
2017-09-21T13:12:13.815Z,12.87
2017-09-21T13:14:41.435Z,12.23
2017-09-21T13:17:09.182Z,14.10
2017-09-21T13:19:38.018Z,13.37
2017-09-21T13:24:45.741Z,13.47
2017-09-21T13:27:14.191Z,11.87
2017-09-21T13:29:42.542Z,11.97
2017-09-21T13:32:10.269Z,14.10
2017-09-21T13:34:37.846Z,13.40
2017-09-21T13:37:05.792Z,12.33
2017-09-21T13:39:34.552Z,12.93
2017-09-21T13:42:02.912Z,12.07
2017-09-21T13:44:30.913Z,11.07
2017-09-21T13:49:47.180Z,11.50
2017-09-21T13:52:48.389Z,12.07
2017-09-21T14:02:49.407Z,12.17
2017-09-21T14:05:16.939Z,11.27
2017-09-21T14:07:44.631Z,12.30
2017-09-21T14:10:13.074Z,12.00
2017-09-21T14:12:41.175Z,11.30
2017-09-21T14:15:09.035Z,9.90
2017-09-21T14:17:36.562Z,10.47
2017-09-21T14:20:04.134Z,11.37
2017-09-21T14:22:32.455Z,10.13
2017-09-21T14:24:59.976Z,10.20
2017-09-21T14:27:28.724Z,9.30
2017-09-21T14:29:56.237Z,8.83
2017-09-21T14:32:23.851Z,9.10
2017-09-21T14:34:51.444Z,8.60
2017-09-21T14:37:19.016Z,8.17
2017-09-21T14:39:47.670Z,8.90
2017-09-21T14:42:15.206Z,8.37
2017-09-21T14:44:42.750Z,7.73
2017-09-21T14:47:10.333Z,7.97
2017-09-21T14:49:39.475Z,7.60
2017-09-21T14:52:07.394Z,8.80
2017-09-21T14:54:34.941Z,9.97
2017-09-21T14:57:02.475Z,8.30
2017-09-21T14:59:30.043Z,10.10
2017-09-21T15:01:57.566Z,10.60
2017-09-21T15:04:25.521Z,10.73
2017-09-21T15:06:53.037Z,10.10
2017-09-21T15:09:20.577Z,11.10
2017-09-21T15:11:48.891Z,11.23
2017-09-21T15:14:18.131Z,10.97
2017-09-21T15:16:45.979Z,11.50
2017-09-21T15:19:13.521Z,10.67
2017-09-21T15:21:41.079Z,10.37
2017-09-21T15:24:08.637Z,11.87
2017-09-21T15:26:36.172Z,11.50
2017-09-21T15:29:04.031Z,11.90
2017-09-21T15:31:32.369Z,12.30
2017-09-21T15:33:59.928Z,12.63
2017-09-21T15:36:27.906Z,11.43
2017-09-21T15:38:55.465Z,13.10
2017-09-21T15:41:23.916Z,11.73
2017-09-21T15:43:51.442Z,12.13
2017-09-21T15:46:19.966Z,12.90
2017-09-21T15:48:47.522Z,12.63
2017-09-21T15:51:15.051Z,14.80
2017-09-21T15:53:42.877Z,13.93
2017-09-21T15:56:10.423Z,14.10
2017-09-21T15:58:37.970Z,13.40
2017-09-21T16:01:05.519Z,13.70
2017-09-21T16:03:33.052Z,14.67
2017-09-21T16:06:01.650Z,15.67
2017-09-21T16:08:29.171Z,16.10
2017-09-21T16:10:56.708Z,16.57
2017-09-21T16:13:24.821Z,14.50
2017-09-21T16:15:52.350Z,14.50
2017-09-21T16:18:20.183Z,16.07
2017-09-21T16:20:47.764Z,16.60
2017-09-21T16:23:15.295Z,16.10
2017-09-21T16:25:42.858Z,17.70
2017-09-21T16:28:10.418Z,15.60
2017-09-21T16:30:38.321Z,15.90
2017-09-21T16:33:05.854Z,16.40
2017-09-21T16:35:33.394Z,17.20
2017-09-21T16:38:01.908Z,16.30
2017-09-21T16:40:29.892Z,15.00
2017-09-21T16:42:57.896Z,16.63
2017-09-21T16:45:25.445Z,15.87
2017-09-21T16:47:52.997Z,16.80
2017-09-21T16:50:20.571Z,16.47
2017-09-21T16:52:48.155Z,16.23
2017-09-21T16:55:16.798Z,16.50
2017-09-21T16:57:44.429Z,16.70
2017-09-21T17:00:12.049Z,15.90
2017-09-21T17:02:39.644Z,16.57
2017-09-21T17:05:07.189Z,16.57
2017-09-21T17:07:35.943Z,15.90
2017-09-21T17:10:03.537Z,16.70
2017-09-21T17:12:31.852Z,16.43
2017-09-21T17:14:59.418Z,18.50
2017-09-21T17:17:26.978Z,16.33
2017-09-21T17:19:54.814Z,16.63
2017-09-21T17:22:23.106Z,15.23
2017-09-21T17:24:50.640Z,16.20
2017-09-21T17:27:18.979Z,17.00
2017-09-21T17:29:46.928Z,17.00
2017-09-21T17:32:14.738Z,15.80
2017-09-21T17:34:43.095Z,16.10
2017-09-21T17:37:10.774Z,16.50
2017-09-21T17:39:38.407Z,15.13
2017-09-21T17:42:06.886Z,16.43
2017-09-21T17:44:34.803Z,15.63
2017-09-21T17:47:02.357Z,16.60
2017-09-21T17:49:29.878Z,17.20
2017-09-21T17:51:57.448Z,16.83
2017-09-21T17:54:25.003Z,17.83
2017-09-21T17:56:52.866Z,17.07
2017-09-21T17:59:20.393Z,18.17
2017-09-21T18:01:48.688Z,14.90
2017-09-21T18:04:16.303Z,16.60
2017-09-21T18:06:43.842Z,16.23
2017-09-21T18:09:11.702Z,17.13
2017-09-21T18:11:39.232Z,15.70
2017-09-21T18:14:06.757Z,18.70
2017-09-21T18:16:34.394Z,27.30
2017-09-21T18:19:02.758Z,18.10
2017-09-21T18:21:30.598Z,19.13
2017-09-21T18:23:58.211Z,17.93
2017-09-21T18:26:25.757Z,18.93
2017-09-21T18:28:53.388Z,19.30
2017-09-21T18:31:20.956Z,20.27
2017-09-21T18:33:48.857Z,18.73
2017-09-21T18:36:16.424Z,19.00
2017-09-21T18:38:44.217Z,20.07
2017-09-21T18:41:11.803Z,19.40
2017-09-21T18:43:39.347Z,19.90
2017-09-21T18:46:07.201Z,19.10
2017-09-21T18:48:35.519Z,20.90
2017-09-21T18:51:03.498Z,19.30
2017-09-21T18:53:31.305Z,17.77
2017-09-21T18:55:59.641Z,20.30
2017-09-21T18:58:27.557Z,20.73
2017-09-21T19:00:55.891Z,18.60
2017-09-21T19:03:23.519Z,18.87
2017-09-21T19:05:53.969Z,19.47
2017-09-21T19:08:21.567Z,19.87
2017-09-21T19:10:49.538Z,18.23
2017-09-21T19:13:17.097Z,20.57
2017-09-21T19:15:44.661Z,18.70
2017-09-21T19:18:12.275Z,20.13
2017-09-21T19:20:39.815Z,19.23
2017-09-21T19:23:08.442Z,20.30
2017-09-21T19:25:35.994Z,20.00
2017-09-21T19:28:03.523Z,20.97
2017-09-21T19:30:31.837Z,20.70
2017-09-21T19:33:00.152Z,19.67
2017-09-21T19:35:27.989Z,19.87
2017-09-21T19:37:55.567Z,20.70
2017-09-21T19:40:23.103Z,22.60
2017-09-21T19:42:50.649Z,20.23
2017-09-21T19:45:18.204Z,19.40
2017-09-21T19:47:45.796Z,20.47
2017-09-21T19:50:13.364Z,17.90
2017-09-21T19:52:40.936Z,20.13
2017-09-21T19:55:08.532Z,22.40
2017-09-21T19:57:36.859Z,21.03
2017-09-21T20:00:05.236Z,20.00
2017-09-21T20:02:32.794Z,20.07
2017-09-21T20:05:04.637Z,19.13
2017-09-21T20:07:32.319Z,21.03
2017-09-21T20:09:59.898Z,19.60
2017-09-21T20:12:27.484Z,18.73
2017-09-21T20:14:55.419Z,19.20
2017-09-21T20:17:22.990Z,20.23
2017-09-21T20:19:50.553Z,21.70
2017-09-21T20:22:18.125Z,19.70
2017-09-21T20:24:45.660Z,21.30
2017-09-21T20:27:13.800Z,18.83
2017-09-21T20:29:41.366Z,20.80
2017-09-21T20:32:08.957Z,20.57
2017-09-21T20:34:36.545Z,20.40
2017-09-21T20:37:04.064Z,21.80
2017-09-21T20:39:31.925Z,23.10
2017-09-21T20:41:59.467Z,24.20
2017-09-21T20:44:27.018Z,24.67
2017-09-21T20:46:55.359Z,23.10
2017-09-21T20:49:22.948Z,23.30
2017-09-21T20:51:50.836Z,21.30
2017-09-21T20:54:18.395Z,21.90
2017-09-21T20:56:45.998Z,21.77
2017-09-21T20:59:13.637Z,23.23
2017-09-21T21:01:41.207Z,23.80
2017-09-21T21:04:08.866Z,21.20
2017-09-21T21:06:36.391Z,21.60
2017-09-21T21:09:03.964Z,20.03
2017-09-21T21:11:31.517Z,20.13
2017-09-21T21:13:59.910Z,21.10
2017-09-21T21:16:27.473Z,21.60
2017-09-21T21:18:55.423Z,20.80
2017-09-21T21:21:23.723Z,20.80
2017-09-21T21:23:51.258Z,19.50
2017-09-21T21:26:19.643Z,20.17
2017-09-21T21:28:47.237Z,20.27
2017-09-21T21:31:14.850Z,19.90
2017-09-21T21:33:43.250Z,19.17
2017-09-21T21:36:10.811Z,18.47
2017-09-21T21:38:39.838Z,19.97
2017-09-21T21:41:08.161Z,20.03
2017-09-21T21:43:35.750Z,19.10
2017-09-21T21:46:04.371Z,17.90
2017-09-21T21:48:31.948Z,18.20
2017-09-21T21:50:59.488Z,18.13
2017-09-21T21:53:27.123Z,19.20
2017-09-21T21:55:54.642Z,19.37
2017-09-21T21:58:22.555Z,19.50
2017-09-21T22:00:50.144Z,19.90
2017-09-21T22:03:18.142Z,20.67
2017-09-21T22:05:45.719Z,20.60
2017-09-21T22:08:13.240Z,19.80
2017-09-21T22:10:41.047Z,18.50
2017-09-21T22:13:09.028Z,20.03
2017-09-21T22:15:37.320Z,21.17
2017-09-21T22:18:05.640Z,20.23
2017-09-21T22:20:33.171Z,18.33
2017-09-21T22:23:01.077Z,22.03
2017-09-21T22:25:28.695Z,19.77
2017-09-21T22:27:56.240Z,21.10
2017-09-21T22:30:24.551Z,21.50
2017-09-21T22:32:52.118Z,20.57
2017-09-21T22:35:31.856Z,20.63
2017-09-21T22:37:59.366Z,22.10
2017-09-21T22:40:26.897Z,20.77
2017-09-21T22:42:54.448Z,20.27
2017-09-21T22:45:22.005Z,19.80
2017-09-21T22:47:49.822Z,21.07
2017-09-21T22:50:18.129Z,20.60
2017-09-21T22:52:45.683Z,21.00
2017-09-21T22:55:13.243Z,19.50
2017-09-21T22:57:40.804Z,20.97
2017-09-21T23:00:08.622Z,20.67
2017-09-21T23:02:36.209Z,20.70
2017-09-21T23:05:04.507Z,20.27
2017-09-21T23:07:32.086Z,20.27
2017-09-21T23:09:59.604Z,20.40
2017-09-21T23:12:28.246Z,21.30
2017-09-21T23:14:56.052Z,19.53
2017-09-21T23:17:24.370Z,20.63
2017-09-21T23:19:51.926Z,20.07
2017-09-21T23:22:19.449Z,19.67
2017-09-21T23:24:47.383Z,22.00
2017-09-21T23:27:14.905Z,19.57
2017-09-21T23:29:43.213Z,21.23
2017-09-21T23:32:10.975Z,19.87
2017-09-21T23:34:38.523Z,19.60
2017-09-21T23:37:06.354Z,20.30
2017-09-21T23:39:34.652Z,20.03
2017-09-21T23:42:02.945Z,20.20
2017-09-21T23:44:30.492Z,19.90
2017-09-21T23:46:58.775Z,20.43
2017-09-21T23:49:26.674Z,18.63
2017-09-21T23:51:54.198Z,20.47
2017-09-21T23:54:22.508Z,20.20
2017-09-21T23:56:50.070Z,19.20
2017-09-21T23:59:17.602Z,19.93
